createdAt,value
2022-11-05T00:02:28.013Z,86.05
2022-11-05T00:05:13.152Z,86.13
2022-11-05T00:08:01.630Z,85.92
2022-11-05T00:10:31.611Z,85.83
2022-11-05T00:13:18.721Z,86.01
2022-11-05T00:16:04.210Z,86.04
2022-11-05T00:18:32.117Z,85.78
2022-11-05T00:21:00.149Z,85.75
2022-11-05T00:23:45.576Z,85.60
2022-11-05T00:26:13.999Z,85.24
2022-11-05T00:28:44.607Z,85.22
2022-11-05T00:31:14.139Z,84.69
2022-11-05T00:33:43.526Z,85.09
2022-11-05T00:36:12.438Z,85.05
2022-11-05T00:38:40.104Z,85.18
2022-11-05T00:41:08.116Z,85.88
2022-11-05T00:43:53.357Z,86.09
2022-11-05T00:46:23.317Z,86.20
2022-11-05T00:49:08.739Z,85.91
2022-11-05T00:51:36.423Z,86.14
2022-11-05T00:54:04.189Z,86.30
2022-11-05T00:56:31.854Z,86.56
2022-11-05T00:58:59.516Z,86.16
2022-11-05T01:01:29.168Z,86.08
2022-11-05T01:03:56.925Z,86.07
2022-11-05T01:06:25.095Z,85.96
2022-11-05T01:08:53.386Z,85.88
2022-11-05T01:11:34.146Z,85.98
2022-11-05T01:14:02.796Z,85.57
2022-11-05T01:16:32.536Z,85.78
2022-11-05T01:19:00.775Z,85.53
2022-11-05T01:21:28.561Z,85.35
2022-11-05T01:23:56.532Z,84.53
2022-11-05T01:26:24.909Z,84.38
2022-11-05T01:28:53.094Z,84.05
2022-11-05T01:31:20.915Z,84.76
2022-11-05T01:33:50.815Z,84.59
2022-11-05T01:36:19.113Z,84.96
2022-11-05T01:38:47.124Z,85.87
2022-11-05T01:41:14.814Z,85.49
2022-11-05T01:43:50.813Z,85.84
2022-11-05T01:46:22.728Z,86.32
2022-11-05T01:49:00.105Z,85.89
2022-11-05T01:51:31.820Z,86.30
2022-11-05T01:54:04.206Z,86.65
2022-11-05T01:56:38.982Z,86.74
2022-11-05T01:59:12.884Z,87.40
2022-11-05T02:01:40.658Z,87.14
2022-11-05T02:04:14.545Z,87.87
2022-11-05T02:06:45.974Z,87.03
2022-11-05T02:09:17.777Z,87.73
2022-11-05T02:11:45.421Z,88.03
2022-11-05T02:14:13.804Z,88.26
2022-11-05T02:16:47.852Z,88.12
2022-11-05T02:20:00.934Z,89.02
2022-11-05T02:23:04.095Z,88.72
2022-11-05T02:26:00.794Z,89.16
2022-11-05T02:28:50.709Z,89.25
2022-11-05T02:31:27.239Z,89.59
2022-11-05T02:34:03.157Z,89.02
2022-11-05T02:36:41.713Z,88.71
2022-11-05T02:39:25.303Z,88.61
2022-11-05T02:42:05.323Z,88.57
2022-11-05T02:44:40.635Z,88.72
2022-11-05T02:47:22.993Z,89.45
2022-11-05T02:49:58.217Z,89.66
2022-11-05T02:52:33.205Z,89.34
2022-11-05T02:55:09.519Z,89.43
2022-11-05T02:57:37.544Z,89.23
2022-11-05T03:00:08.155Z,89.07
2022-11-05T03:02:37.404Z,89.00
2022-11-05T03:05:06.357Z,88.71
2022-11-05T03:07:48.963Z,88.74
2022-11-05T03:10:28.417Z,88.51
2022-11-05T03:13:09.282Z,88.58
2022-11-05T03:15:50.745Z,88.56
2022-11-05T03:18:27.126Z,88.60
2022-11-05T03:21:03.837Z,88.79
2022-11-05T03:23:39.649Z,88.57
2022-11-05T03:26:17.329Z,88.80
2022-11-05T03:28:50.531Z,89.03
2022-11-05T03:31:19.801Z,89.00
2022-11-05T03:33:52.725Z,88.07
2022-11-05T03:36:25.144Z,87.90
2022-11-05T03:38:55.885Z,87.97
2022-11-05T03:41:25.899Z,87.81
2022-11-05T03:43:59.594Z,87.82
2022-11-05T03:46:30.668Z,87.72
2022-11-05T03:49:04.666Z,87.59
2022-11-05T03:51:39.866Z,87.26
2022-11-05T03:54:08.425Z,87.62
2022-11-05T03:56:41.315Z,87.29
2022-11-05T03:59:11.104Z,87.02
2022-11-05T04:01:40.197Z,86.99
2022-11-05T04:04:10.312Z,86.36
2022-11-05T04:06:54.577Z,86.76
2022-11-05T04:09:40.491Z,86.51
2022-11-05T04:12:27.797Z,87.12
2022-11-05T04:14:55.832Z,87.45
2022-11-05T04:17:22.606Z,87.29
2022-11-05T04:20:09.471Z,87.88
2022-11-05T04:22:55.293Z,87.40
2022-11-05T04:25:23.436Z,87.66
2022-11-05T04:27:51.173Z,87.72
2022-11-05T04:30:19.840Z,87.52
2022-11-05T04:33:01.112Z,87.62
2022-11-05T04:35:32.793Z,87.48
2022-11-05T04:38:00.697Z,87.45
2022-11-05T04:40:29.216Z,87.51
2022-11-05T04:42:57.471Z,87.63
2022-11-05T04:45:27.137Z,87.61
2022-11-05T04:47:54.802Z,87.48
2022-11-05T04:50:23.089Z,87.60
2022-11-05T04:52:52.238Z,87.45
2022-11-05T04:55:19.998Z,87.35
2022-11-05T04:57:49.491Z,87.36
2022-11-05T05:00:18.507Z,87.66
2022-11-05T05:02:46.764Z,86.95
2022-11-05T05:05:15.064Z,87.49
2022-11-05T05:07:42.929Z,88.04
2022-11-05T05:10:12.543Z,87.86
2022-11-05T05:12:40.235Z,87.72
2022-11-05T05:15:08.725Z,88.06
2022-11-05T05:17:36.354Z,88.15
2022-11-05T05:20:22.066Z,88.41
2022-11-05T05:22:52.903Z,88.54
2022-11-05T05:25:22.529Z,88.89
2022-11-05T05:27:50.210Z,88.43
2022-11-05T05:30:18.353Z,87.83
2022-11-05T05:32:46.166Z,87.64
2022-11-05T05:35:13.861Z,87.76
2022-11-05T05:37:41.825Z,87.72
2022-11-05T05:40:10.707Z,87.91
2022-11-05T05:42:43.194Z,87.58
2022-11-05T05:45:12.349Z,87.54
2022-11-05T05:47:40.414Z,87.74
2022-11-05T05:50:08.393Z,87.30
2022-11-05T05:52:36.401Z,87.24
2022-11-05T05:55:04.396Z,87.50
2022-11-05T05:57:32.306Z,86.84
2022-11-05T06:00:01.925Z,86.97
2022-11-05T06:02:39.831Z,87.15
2022-11-05T06:05:08.065Z,87.72
2022-11-05T06:07:37.586Z,87.72
2022-11-05T06:10:06.079Z,87.27
2022-11-05T06:12:34.061Z,87.70
2022-11-05T06:15:03.642Z,87.33
2022-11-05T06:17:31.609Z,87.59
2022-11-05T06:19:59.254Z,87.51
2022-11-05T06:22:27.220Z,87.81
2022-11-05T06:24:54.840Z,88.04
2022-11-05T06:27:23.091Z,87.77
2022-11-05T06:29:50.897Z,88.14
2022-11-05T06:32:19.940Z,87.88
2022-11-05T06:34:47.582Z,88.17
2022-11-05T06:37:15.576Z,87.47
2022-11-05T06:39:43.228Z,87.68
2022-11-05T06:42:18.320Z,87.79
2022-11-05T06:44:46.846Z,87.81
2022-11-05T06:47:14.949Z,88.35
2022-11-05T06:49:43.980Z,88.25
2022-11-05T06:52:12.367Z,88.01
2022-11-05T06:54:40.759Z,88.09
2022-11-05T06:57:09.538Z,87.56
2022-11-05T06:59:37.412Z,87.57
2022-11-05T07:02:05.354Z,87.83
2022-11-05T07:04:33.408Z,87.79
2022-11-05T07:07:02.987Z,88.03
2022-11-05T07:09:30.744Z,88.05
2022-11-05T07:11:58.541Z,88.32
2022-11-05T07:14:26.197Z,88.96
2022-11-05T07:16:53.873Z,89.28
2022-11-05T07:19:21.962Z,88.76
2022-11-05T07:21:51.360Z,89.18
2022-11-05T07:24:20.330Z,88.92
2022-11-05T07:26:47.997Z,89.46
2022-11-05T07:29:15.615Z,89.26
2022-11-05T07:31:43.280Z,89.50
2022-11-05T07:34:10.929Z,89.74
2022-11-05T07:36:40.071Z,89.66
2022-11-05T07:39:07.837Z,89.57
2022-11-05T07:41:37.698Z,89.90
2022-11-05T07:44:05.421Z,89.70
2022-11-05T07:46:33.067Z,89.30
2022-11-05T07:49:00.761Z,89.17
2022-11-05T07:51:28.866Z,88.57
2022-11-05T07:53:56.588Z,88.85
2022-11-05T07:56:24.763Z,88.66
2022-11-05T07:58:53.763Z,89.32
2022-11-05T08:01:21.920Z,89.05
2022-11-05T08:03:49.735Z,89.32
2022-11-05T08:06:17.415Z,90.55
2022-11-05T08:08:45.056Z,89.97
2022-11-05T08:11:13.194Z,89.55
2022-11-05T08:13:42.727Z,89.60
2022-11-05T08:16:12.569Z,89.30
2022-11-05T08:18:40.275Z,89.86
2022-11-05T08:21:09.220Z,90.16
2022-11-05T08:23:38.603Z,89.78
2022-11-05T08:26:07.077Z,90.50
2022-11-05T08:28:34.711Z,90.11
2022-11-05T08:31:02.712Z,90.24
2022-11-05T08:33:33.098Z,91.38
2022-11-05T08:36:03.347Z,90.80
2022-11-05T08:38:31.341Z,91.85
2022-11-05T08:41:00.382Z,91.88
2022-11-05T08:43:28.117Z,91.39
2022-11-05T08:45:56.536Z,90.90
2022-11-05T08:48:24.232Z,90.91
2022-11-05T08:50:53.528Z,90.40
2022-11-05T08:53:21.253Z,89.91
2022-11-05T08:55:50.971Z,89.40
2022-11-05T08:58:20.667Z,88.35
2022-11-05T09:00:50.642Z,87.84
2022-11-05T09:03:19.300Z,87.17
2022-11-05T09:05:47.621Z,86.04
2022-11-05T09:08:18.580Z,86.45
2022-11-05T09:10:50.059Z,85.04
2022-11-05T09:13:19.770Z,85.64
2022-11-05T09:15:49.011Z,87.93
2022-11-05T09:18:18.205Z,86.26
2022-11-05T09:20:46.518Z,87.97
2022-11-05T09:23:16.116Z,88.25
2022-11-05T09:25:45.116Z,88.17
2022-11-05T09:28:16.841Z,88.80
2022-11-05T09:30:46.893Z,88.93
2022-11-05T09:33:14.697Z,88.88
2022-11-05T09:35:43.000Z,88.77
2022-11-05T09:38:11.545Z,88.26
2022-11-05T09:40:44.096Z,88.26
2022-11-05T09:43:19.562Z,88.72
2022-11-05T09:45:51.402Z,88.44
2022-11-05T09:48:24.585Z,87.54
2022-11-05T09:50:54.964Z,87.59
2022-11-05T09:53:24.372Z,87.64
2022-11-05T09:55:57.597Z,87.64
2022-11-05T09:58:39.867Z,87.82
2022-11-05T10:01:15.769Z,87.69
2022-11-05T10:03:47.013Z,87.12
2022-11-05T10:06:21.833Z,87.88
2022-11-05T10:08:55.605Z,87.70
2022-11-05T10:11:31.337Z,87.47
2022-11-05T10:14:02.789Z,88.01
2022-11-05T10:16:35.984Z,88.76
2022-11-05T10:19:10.685Z,87.81
2022-11-05T10:22:05.088Z,87.00
2022-11-05T10:24:28.319Z,87.65
2022-11-05T10:26:58.587Z,87.04
2022-11-05T10:29:30.238Z,86.77
2022-11-05T10:31:59.747Z,86.30
2022-11-05T10:34:30.522Z,86.26
2022-11-05T10:36:58.429Z,86.72
2022-11-05T10:39:27.650Z,86.31
2022-11-05T10:42:24.896Z,85.94
2022-11-05T10:45:00.584Z,84.56
2022-11-05T10:47:45.101Z,86.06
2022-11-05T10:50:17.465Z,86.25
2022-11-05T10:52:55.378Z,85.04
2022-11-05T10:55:26.169Z,84.12
2022-11-05T10:57:57.579Z,84.61
2022-11-05T11:00:28.366Z,83.76
2022-11-05T11:02:59.322Z,83.54
2022-11-05T11:05:30.779Z,83.13
2022-11-05T11:08:05.490Z,82.75
2022-11-05T11:10:49.769Z,82.16
2022-11-05T11:13:22.875Z,82.18
2022-11-05T11:15:51.395Z,82.06
2022-11-05T11:18:27.430Z,79.82
2022-11-05T11:21:05.603Z,77.46
2022-11-05T11:23:37.959Z,75.97
2022-11-05T11:26:07.416Z,76.46
2022-11-05T11:28:39.134Z,75.72
2022-11-05T11:31:12.317Z,74.03
2022-11-05T11:33:43.540Z,74.83
2022-11-05T11:36:13.781Z,75.02
2022-11-05T11:38:42.560Z,76.19
2022-11-05T11:41:24.990Z,77.34
2022-11-05T11:43:58.094Z,76.90
2022-11-05T11:46:26.845Z,77.84
2022-11-05T11:48:54.573Z,79.13
2022-11-05T11:51:35.072Z,79.03
2022-11-05T11:54:04.215Z,79.66
2022-11-05T11:56:44.656Z,81.18
2022-11-05T11:59:40.538Z,81.63
2022-11-05T12:02:35.299Z,82.74
2022-11-05T12:05:37.121Z,82.95
2022-11-05T12:08:19.574Z,83.50
2022-11-05T12:10:59.076Z,82.92
2022-11-05T12:13:49.336Z,84.57
2022-11-05T12:16:27.502Z,85.36
2022-11-05T12:19:03.886Z,85.10
2022-11-05T12:21:52.534Z,84.79
2022-11-05T12:24:55.399Z,84.24
2022-11-05T12:27:34.523Z,84.42
2022-11-05T12:30:09.169Z,83.88
2022-11-05T12:32:55.854Z,84.96
2022-11-05T12:35:45.743Z,82.93
2022-11-05T12:38:27.330Z,83.87
2022-11-05T12:41:12.555Z,85.15
2022-11-05T12:43:53.100Z,84.48
2022-11-05T12:46:28.322Z,84.77
2022-11-05T12:49:20.197Z,84.86
2022-11-05T12:52:02.966Z,85.02
2022-11-05T12:54:44.499Z,84.60
2022-11-05T12:57:15.279Z,84.48
2022-11-05T12:59:51.545Z,85.96
2022-11-05T13:02:27.877Z,86.02
2022-11-05T13:05:01.939Z,85.39
2022-11-05T13:07:34.430Z,85.98
2022-11-05T13:10:06.930Z,85.48
2022-11-05T13:12:40.281Z,84.76
2022-11-05T13:15:21.164Z,83.85
2022-11-05T13:17:52.965Z,83.70
2022-11-05T13:20:25.317Z,83.10
2022-11-05T13:22:59.063Z,81.87
2022-11-05T13:25:29.623Z,82.28
2022-11-05T13:28:03.803Z,80.73
2022-11-05T13:30:37.293Z,81.18
2022-11-05T13:33:11.875Z,80.67
2022-11-05T13:35:46.213Z,81.59
2022-11-05T13:38:38.991Z,79.44
2022-11-05T13:41:21.594Z,81.22
2022-11-05T13:44:05.947Z,82.05
2022-11-05T13:46:56.227Z,82.21
2022-11-05T13:49:52.964Z,82.50
2022-11-05T13:52:36.519Z,81.75
2022-11-05T13:55:49.390Z,83.13
2022-11-05T13:58:45.973Z,84.46
2022-11-05T14:01:24.788Z,85.27
2022-11-05T14:03:54.993Z,84.12
2022-11-05T14:06:28.805Z,84.78
2022-11-05T14:09:02.002Z,83.75
2022-11-05T14:11:33.732Z,83.45
2022-11-05T14:14:04.179Z,84.73
2022-11-05T14:16:49.011Z,85.66
2022-11-05T14:19:34.544Z,86.28
2022-11-05T14:22:42.359Z,83.42
2022-11-05T14:25:56.930Z,83.65
2022-11-05T14:28:51.852Z,83.48
2022-11-05T14:31:54.434Z,82.12
2022-11-05T14:34:24.018Z,81.98
2022-11-05T14:37:20.753Z,81.88
2022-11-05T14:39:48.573Z,81.19
2022-11-05T14:42:21.217Z,81.50
2022-11-05T14:45:03.074Z,81.49
2022-11-05T14:47:34.272Z,81.02
2022-11-05T14:50:09.463Z,81.00
2022-11-05T14:52:39.069Z,80.72
2022-11-05T14:55:23.228Z,80.00
2022-11-05T14:58:21.162Z,80.69
2022-11-05T15:00:51.201Z,80.63
2022-11-05T15:04:02.994Z,81.41
2022-11-05T15:06:36.636Z,81.57
2022-11-05T15:09:27.677Z,82.12
2022-11-05T15:12:19.549Z,81.88
2022-11-05T15:14:58.291Z,81.67
2022-11-05T15:17:30.711Z,82.11
2022-11-05T15:20:10.234Z,82.18
2022-11-05T15:22:42.981Z,81.85
2022-11-05T15:25:18.812Z,81.43
2022-11-05T15:28:06.593Z,80.83
2022-11-05T15:30:34.464Z,81.04
2022-11-05T15:33:19.930Z,81.36
2022-11-05T15:35:47.594Z,81.00
2022-11-05T15:38:31.440Z,81.45
2022-11-05T15:41:01.293Z,81.33
2022-11-05T15:43:29.241Z,81.58
2022-11-05T15:46:06.101Z,82.37
2022-11-05T15:48:37.148Z,82.62
2022-11-05T15:51:05.114Z,84.26
2022-11-05T15:56:30.875Z,86.60
2022-11-05T15:59:02.864Z,86.26
2022-11-05T16:01:34.337Z,85.98
2022-11-05T16:04:15.841Z,85.97
2022-11-05T16:06:46.236Z,86.16
2022-11-05T16:09:25.433Z,86.37
2022-11-05T16:12:14.651Z,86.80
2022-11-05T16:14:42.783Z,86.54
2022-11-05T16:17:20.835Z,86.62
2022-11-05T16:19:50.733Z,86.31
2022-11-05T16:22:18.720Z,85.70
2022-11-05T16:24:47.832Z,86.27
2022-11-05T16:27:19.699Z,85.97
2022-11-05T16:29:51.179Z,85.69
2022-11-05T16:32:26.857Z,86.01
2022-11-05T16:35:02.417Z,85.99
2022-11-05T16:37:46.332Z,85.85
2022-11-05T16:40:19.940Z,86.60
2022-11-05T16:42:48.867Z,86.53
2022-11-05T16:45:19.500Z,86.46
2022-11-05T16:47:48.219Z,86.56
2022-11-05T16:50:20.816Z,86.08
2022-11-05T16:52:49.529Z,86.56
2022-11-05T16:55:17.907Z,86.68
2022-11-05T16:57:49.160Z,86.11
2022-11-05T17:00:19.217Z,86.42
2022-11-05T17:02:47.386Z,86.16
2022-11-05T17:05:21.283Z,85.92
2022-11-05T17:07:48.983Z,86.74
2022-11-05T17:10:17.024Z,86.57
2022-11-05T17:12:45.527Z,87.79
2022-11-05T17:15:18.920Z,88.35
2022-11-05T17:17:47.147Z,88.05
2022-11-05T17:20:27.246Z,88.01
2022-11-05T17:22:56.078Z,87.75
2022-11-05T17:25:24.349Z,87.76
2022-11-05T17:27:52.593Z,87.49
2022-11-05T17:30:20.376Z,87.18
2022-11-05T17:32:48.078Z,87.66
2022-11-05T17:35:16.872Z,87.09
2022-11-05T17:37:45.903Z,87.52
2022-11-05T17:40:16.374Z,87.74
2022-11-05T17:42:44.588Z,88.21
2022-11-05T17:45:13.664Z,88.75
2022-11-05T17:47:42.401Z,88.48
2022-11-05T17:50:13.318Z,88.91
2022-11-05T17:52:41.160Z,88.66
2022-11-05T17:55:16.737Z,88.98
2022-11-05T17:57:46.095Z,88.30
2022-11-05T18:00:15.318Z,88.01
2022-11-05T18:02:43.159Z,87.53
2022-11-05T18:05:11.725Z,87.40
2022-11-05T18:07:39.616Z,87.05
2022-11-05T18:10:09.285Z,87.21
2022-11-05T18:12:38.557Z,87.08
2022-11-05T18:15:08.310Z,87.14
2022-11-05T18:17:36.552Z,87.56
2022-11-05T18:20:04.987Z,87.38
2022-11-05T18:22:32.681Z,86.68
2022-11-05T18:25:00.702Z,86.31
2022-11-05T18:27:28.453Z,86.28
2022-11-05T18:29:57.841Z,86.05
2022-11-05T18:32:25.528Z,86.27
2022-11-05T18:34:53.549Z,86.05
2022-11-05T18:37:21.266Z,86.04
2022-11-05T18:39:52.219Z,86.05
2022-11-05T18:42:20.598Z,86.26
2022-11-05T18:44:48.800Z,86.38
2022-11-05T18:47:17.931Z,86.28
2022-11-05T18:49:45.934Z,86.29
2022-11-05T18:52:13.736Z,86.12
2022-11-05T18:54:42.066Z,85.68
2022-11-05T18:57:09.727Z,85.94
2022-11-05T18:59:39.650Z,85.28
2022-11-05T19:02:08.462Z,85.93
2022-11-05T19:04:38.448Z,85.67
2022-11-05T19:07:06.912Z,85.95
2022-11-05T19:09:35.288Z,86.03
2022-11-05T19:12:03.452Z,85.33
2022-11-05T19:14:31.550Z,85.50
2022-11-05T19:17:00.278Z,85.48
2022-11-05T19:19:29.075Z,85.71
2022-11-05T19:21:58.655Z,85.48
2022-11-05T19:24:26.493Z,86.45
2022-11-05T19:26:54.559Z,86.17
2022-11-05T19:29:22.196Z,86.36
2022-11-05T19:31:50.496Z,85.75
2022-11-05T19:34:18.183Z,85.92
2022-11-05T19:36:46.514Z,86.08
2022-11-05T19:39:16.327Z,86.29
2022-11-05T19:41:44.325Z,86.09
2022-11-05T19:44:12.140Z,86.73
2022-11-05T19:46:40.449Z,86.42
2022-11-05T19:49:08.104Z,86.74
2022-11-05T19:51:36.466Z,86.39
2022-11-05T19:54:05.279Z,86.41
2022-11-05T19:56:37.013Z,86.20
2022-11-05T19:59:06.448Z,86.41
2022-11-05T20:01:35.564Z,86.30
2022-11-05T20:04:03.552Z,86.09
2022-11-05T20:06:33.580Z,86.10
2022-11-05T20:11:54.811Z,86.08
2022-11-05T20:14:23.433Z,86.47
2022-11-05T20:16:51.504Z,85.94
2022-11-05T20:19:22.322Z,86.10
2022-11-05T20:21:50.677Z,85.82
2022-11-05T20:24:24.371Z,85.47
2022-11-05T20:26:55.815Z,85.40
2022-11-05T20:29:29.080Z,85.80
2022-11-05T20:32:02.383Z,85.88
2022-11-05T20:34:30.408Z,85.55
2022-11-05T20:36:58.708Z,85.90
2022-11-05T20:39:26.452Z,85.64
2022-11-05T20:41:57.116Z,85.43
2022-11-05T20:44:24.835Z,84.77
2022-11-05T20:46:52.970Z,85.12
2022-11-05T20:49:25.118Z,85.18
2022-11-05T20:51:54.113Z,85.25
2022-11-05T20:54:21.774Z,86.12
2022-11-05T20:56:49.452Z,85.77
2022-11-05T20:59:18.472Z,85.92
2022-11-05T21:01:46.303Z,85.92
2022-11-05T21:04:14.006Z,86.29
2022-11-05T21:06:42.013Z,86.17
2022-11-05T21:09:09.754Z,86.35
2022-11-05T21:11:51.985Z,86.18
2022-11-05T21:14:21.078Z,86.71
2022-11-05T21:16:48.791Z,87.16
2022-11-05T21:19:16.600Z,86.56
2022-11-05T21:21:44.297Z,86.82
2022-11-05T21:24:11.941Z,86.64
2022-11-05T21:26:40.141Z,86.39
2022-11-05T21:29:08.628Z,86.53
2022-11-05T21:31:38.844Z,86.96
2022-11-05T21:34:06.708Z,86.58
2022-11-05T21:36:35.246Z,86.52
2022-11-05T21:39:04.853Z,86.70
2022-11-05T21:41:34.605Z,86.56
2022-11-05T21:44:03.905Z,86.30
2022-11-05T21:46:32.005Z,86.26
2022-11-05T21:49:02.290Z,86.28
2022-11-05T21:51:47.960Z,86.35
2022-11-05T21:54:33.121Z,86.89
2022-11-05T21:57:18.816Z,86.86
2022-11-05T21:59:49.578Z,86.24
2022-11-05T22:02:20.045Z,86.75
2022-11-05T22:04:51.143Z,86.88
2022-11-05T22:07:20.512Z,87.05
2022-11-05T22:09:48.562Z,86.99
2022-11-05T22:12:16.373Z,87.33
2022-11-05T22:14:44.350Z,88.07
2022-11-05T22:17:13.661Z,88.43
2022-11-05T22:19:41.362Z,87.99
2022-11-05T22:22:10.572Z,87.74
2022-11-05T22:24:38.331Z,87.29
2022-11-05T22:27:07.608Z,87.04
2022-11-05T22:29:37.705Z,87.34
2022-11-05T22:32:06.395Z,87.29
2022-11-05T22:34:34.290Z,87.56
2022-11-05T22:37:01.999Z,87.55
2022-11-05T22:39:31.353Z,87.67
2022-11-05T22:42:04.198Z,87.78
2022-11-05T22:44:35.119Z,87.93
2022-11-05T22:47:03.124Z,87.58
2022-11-05T22:49:30.789Z,87.91
2022-11-05T22:51:58.843Z,87.90
2022-11-05T22:54:26.788Z,87.91
2022-11-05T22:56:56.365Z,88.09
2022-11-05T22:59:24.259Z,87.98
2022-11-05T23:01:52.653Z,87.64
2022-11-05T23:04:20.439Z,86.53
2022-11-05T23:07:05.771Z,86.07
2022-11-05T23:09:53.082Z,86.16
2022-11-05T23:12:25.909Z,86.03
2022-11-05T23:14:54.336Z,85.96
2022-11-05T23:17:39.813Z,85.94
2022-11-05T23:20:29.628Z,86.44
2022-11-05T23:23:15.424Z,86.52
2022-11-05T23:25:43.708Z,86.70
2022-11-05T23:28:13.745Z,86.85
2022-11-05T23:30:58.932Z,87.13
2022-11-05T23:33:26.821Z,87.37
2022-11-05T23:36:12.864Z,87.38
2022-11-05T23:38:40.755Z,87.50
2022-11-05T23:41:26.557Z,87.64
2022-11-05T23:44:13.155Z,87.81
2022-11-05T23:46:58.799Z,88.18
2022-11-05T23:49:26.737Z,87.78
2022-11-05T23:51:55.112Z,87.67
2022-11-05T23:54:22.919Z,87.70
2022-11-05T23:56:51.011Z,87.93
2022-11-05T23:59:20.040Z,88.17
